createdAt,value
2022-12-15T00:02:35.068Z,-7.20
2022-12-15T00:05:20.675Z,-7.30
2022-12-15T00:08:08.175Z,-7.40
2022-12-15T00:10:53.711Z,-7.30
2022-12-15T00:13:39.323Z,-7.10
2022-12-15T00:16:26.170Z,-7.20
2022-12-15T00:19:12.008Z,-7.20
2022-12-15T00:21:57.639Z,-7.20
2022-12-15T00:24:43.176Z,-7.30
2022-12-15T00:27:28.642Z,-7.30
2022-12-15T00:30:14.351Z,-7.40
2022-12-15T00:33:00.259Z,-7.40
2022-12-15T00:35:45.835Z,-7.20
2022-12-15T00:38:33.430Z,-7.10
2022-12-15T00:41:01.487Z,-6.90
2022-12-15T00:43:32.471Z,-6.80
2022-12-15T00:46:19.270Z,-6.80
2022-12-15T00:48:46.768Z,-6.70
2022-12-15T00:51:14.497Z,-6.70
2022-12-15T00:54:01.218Z,-6.80
2022-12-15T00:56:47.376Z,-6.70
2022-12-15T00:59:33.852Z,-6.70
2022-12-15T01:02:19.887Z,-6.70
2022-12-15T01:05:05.852Z,-6.60
2022-12-15T01:07:51.612Z,-6.50
2022-12-15T01:10:37.941Z,-6.40
2022-12-15T01:13:24.179Z,-6.40
2022-12-15T01:16:09.606Z,-6.40
2022-12-15T01:18:55.661Z,-6.40
2022-12-15T01:21:24.934Z,-6.40
2022-12-15T01:23:53.272Z,-6.40
2022-12-15T01:26:20.437Z,-6.40
2022-12-15T01:28:47.408Z,-6.40
2022-12-15T01:31:14.862Z,-6.50
2022-12-15T01:33:44.712Z,-6.50
2022-12-15T01:36:11.830Z,-6.60
2022-12-15T01:38:38.842Z,-6.60
2022-12-15T01:41:09.612Z,-6.60
2022-12-15T01:43:38.157Z,-6.50
2022-12-15T01:46:22.306Z,-6.50
2022-12-15T01:49:16.411Z,-6.40
2022-12-15T01:51:47.594Z,-6.30
2022-12-15T01:54:43.868Z,-6.30
2022-12-15T01:57:20.449Z,-6.20
2022-12-15T01:59:52.198Z,-6.30
2022-12-15T02:02:22.493Z,-6.30
2022-12-15T02:04:51.550Z,-6.30
2022-12-15T02:07:19.067Z,-6.40
2022-12-15T02:09:48.654Z,-6.40
2022-12-15T02:12:42.446Z,-6.30
2022-12-15T02:15:37.248Z,-6.30
2022-12-15T02:18:24.713Z,-6.30
2022-12-15T02:21:15.100Z,-6.10
2022-12-15T02:24:37.245Z,-6.00
2022-12-15T02:27:36.980Z,-5.80
2022-12-15T02:30:22.077Z,-5.70
2022-12-15T02:33:06.568Z,-5.60
2022-12-15T02:35:56.326Z,-5.50
2022-12-15T02:38:37.879Z,-5.40
2022-12-15T02:41:06.292Z,-5.40
2022-12-15T02:43:38.046Z,-5.40
2022-12-15T02:46:39.293Z,-5.40
2022-12-15T02:49:53.082Z,-5.30
2022-12-15T03:02:01.514Z,-5.40
2022-12-15T03:07:11.090Z,-5.60
2022-12-15T03:09:38.306Z,-5.60
2022-12-15T03:12:05.865Z,-5.60
2022-12-15T03:14:32.768Z,-5.70
2022-12-15T03:16:59.820Z,-5.80
2022-12-15T03:19:26.938Z,-5.80
2022-12-15T03:21:53.886Z,-5.90
2022-12-15T03:24:20.845Z,-5.90
2022-12-15T03:26:50.189Z,-5.90
2022-12-15T03:29:18.321Z,-6.00
2022-12-15T03:31:46.048Z,-6.00
2022-12-15T03:34:17.119Z,-6.10
2022-12-15T03:36:43.968Z,-6.00
2022-12-15T03:39:11.144Z,-6.10
2022-12-15T03:41:38.202Z,-6.10
2022-12-15T03:44:05.360Z,-6.20
2022-12-15T03:46:32.257Z,-6.10
2022-12-15T03:48:59.115Z,-6.10
2022-12-15T03:51:26.238Z,-6.10
2022-12-15T03:53:54.684Z,-6.10
2022-12-15T03:56:22.167Z,-6.10
2022-12-15T03:58:49.200Z,-6.20
2022-12-15T04:01:30.953Z,-6.20
2022-12-15T04:04:00.929Z,-6.20
2022-12-15T04:06:29.636Z,-6.20
2022-12-15T04:08:59.507Z,-6.20
2022-12-15T04:11:26.478Z,-6.10
2022-12-15T04:13:53.408Z,-6.10
2022-12-15T04:16:20.721Z,-6.10
2022-12-15T04:19:08.154Z,-6.10
2022-12-15T04:21:35.132Z,-6.20
2022-12-15T04:24:20.711Z,-6.20
2022-12-15T04:27:06.064Z,-6.30
2022-12-15T04:29:51.460Z,-6.30
2022-12-15T04:32:36.813Z,-6.40
2022-12-15T04:35:22.553Z,-6.50
2022-12-15T04:38:07.933Z,-6.50
2022-12-15T04:40:53.743Z,-6.40
2022-12-15T04:43:39.079Z,-6.40
2022-12-15T04:46:24.767Z,-6.30
2022-12-15T04:49:10.535Z,-6.20
2022-12-15T04:51:55.948Z,-6.20
2022-12-15T04:54:41.539Z,-6.30
2022-12-15T04:57:28.440Z,-6.40
2022-12-15T05:00:14.066Z,-6.50
2022-12-15T05:02:59.496Z,-6.50
2022-12-15T05:05:45.125Z,-6.50
2022-12-15T05:08:30.754Z,-6.50
2022-12-15T05:11:18.982Z,-6.50
2022-12-15T05:14:04.509Z,-6.40
2022-12-15T05:16:50.318Z,-6.30
2022-12-15T05:19:35.712Z,-6.20
2022-12-15T05:22:21.411Z,-6.20
2022-12-15T05:25:07.091Z,-6.20
2022-12-15T05:27:52.424Z,-6.20
2022-12-15T05:30:38.087Z,-6.20
2022-12-15T05:33:06.873Z,-6.20
2022-12-15T05:35:33.746Z,-6.20
2022-12-15T05:38:00.595Z,-6.30
2022-12-15T05:40:27.479Z,-6.30
2022-12-15T05:42:57.463Z,-6.40
2022-12-15T05:45:24.425Z,-6.50
2022-12-15T05:47:55.163Z,-6.60
2022-12-15T05:50:25.417Z,-6.60
2022-12-15T05:52:52.400Z,-6.70
2022-12-15T05:55:20.090Z,-6.70
2022-12-15T05:57:54.223Z,-6.60
2022-12-15T06:00:21.973Z,-6.60
2022-12-15T06:02:49.934Z,-6.50
2022-12-15T06:05:17.836Z,-6.50
2022-12-15T06:07:45.080Z,-6.50
2022-12-15T06:10:12.465Z,-6.50
2022-12-15T06:12:39.359Z,-6.50
2022-12-15T06:15:09.051Z,-6.40
2022-12-15T06:17:36.411Z,-6.30
2022-12-15T06:20:04.227Z,-6.30
2022-12-15T06:22:31.547Z,-6.30
2022-12-15T06:24:59.681Z,-6.30
2022-12-15T06:27:26.556Z,-6.30
2022-12-15T06:29:53.803Z,-6.40
2022-12-15T06:32:21.952Z,-6.40
2022-12-15T06:34:49.728Z,-6.40
2022-12-15T06:37:16.632Z,-6.40
2022-12-15T06:39:43.895Z,-6.50
2022-12-15T06:42:11.094Z,-6.50
2022-12-15T06:44:38.256Z,-6.50
2022-12-15T06:47:06.026Z,-6.60
2022-12-15T06:49:33.487Z,-6.60
2022-12-15T06:52:00.769Z,-6.50
2022-12-15T06:54:28.965Z,-6.50
2022-12-15T06:56:56.231Z,-6.50
2022-12-15T06:59:23.606Z,-6.50
2022-12-15T07:01:51.776Z,-6.50
2022-12-15T07:04:19.187Z,-6.60
2022-12-15T07:06:46.419Z,-6.60
2022-12-15T07:09:17.351Z,-6.70
2022-12-15T07:11:45.198Z,-6.80
2022-12-15T07:14:12.462Z,-6.80
2022-12-15T07:16:39.530Z,-6.80
2022-12-15T07:19:07.784Z,-6.80
2022-12-15T07:21:35.037Z,-6.70
2022-12-15T07:24:03.150Z,-6.80
2022-12-15T07:26:30.662Z,-6.70
2022-12-15T07:28:58.022Z,-6.80
2022-12-15T07:31:25.924Z,-6.80
2022-12-15T07:33:55.126Z,-6.80
2022-12-15T07:36:22.871Z,-6.80
2022-12-15T07:38:50.229Z,-6.80
2022-12-15T07:41:19.048Z,-6.70
2022-12-15T07:43:47.192Z,-6.70
2022-12-15T07:46:14.324Z,-6.80
2022-12-15T07:48:41.430Z,-6.80
2022-12-15T07:51:17.170Z,-6.60
2022-12-15T07:53:47.301Z,-6.10
2022-12-15T07:56:14.215Z,-5.60
2022-12-15T07:58:41.905Z,-5.10
2022-12-15T08:01:12.490Z,-4.70
2022-12-15T08:03:40.610Z,-4.40
2022-12-15T08:06:13.548Z,-4.00
2022-12-15T08:08:41.295Z,-3.80
2022-12-15T08:11:10.264Z,-3.50
2022-12-15T08:14:01.995Z,-3.20
2022-12-15T08:16:25.596Z,-3.00
2022-12-15T08:18:52.616Z,-2.80
2022-12-15T08:21:19.468Z,-2.70
2022-12-15T08:23:46.387Z,-2.50
2022-12-15T08:26:16.229Z,-2.20
2022-12-15T08:28:44.331Z,-1.90
2022-12-15T08:31:17.782Z,-1.60
2022-12-15T08:33:45.660Z,-1.40
2022-12-15T08:36:13.994Z,-1.20
2022-12-15T08:38:42.871Z,-1.10
2022-12-15T08:41:23.049Z,-1.00
2022-12-15T08:43:51.468Z,-1.00
2022-12-15T08:46:20.407Z,-1.10
2022-12-15T08:48:47.488Z,-0.80
2022-12-15T08:51:15.182Z,-0.40
2022-12-15T08:53:42.540Z,0.00
2022-12-15T08:56:13.879Z,0.20
2022-12-15T08:58:43.210Z,0.20
2022-12-15T09:01:19.031Z,0.20
2022-12-15T09:03:50.544Z,0.30
2022-12-15T09:06:23.026Z,0.50
2022-12-15T09:08:50.527Z,0.60
2022-12-15T09:11:18.147Z,0.70
2022-12-15T09:13:45.074Z,0.50
2022-12-15T09:16:17.144Z,0.50
2022-12-15T09:18:52.537Z,0.30
2022-12-15T09:21:22.479Z,0.30
2022-12-15T09:23:51.964Z,0.30
2022-12-15T09:26:21.055Z,0.10
2022-12-15T09:28:50.086Z,0.00
2022-12-15T09:31:26.527Z,0.00
2022-12-15T09:33:55.429Z,0.10
2022-12-15T09:36:22.831Z,0.10
2022-12-15T09:38:50.099Z,0.10
2022-12-15T09:41:29.620Z,-0.10
2022-12-15T09:44:05.344Z,0.00
2022-12-15T09:47:30.942Z,0.10
2022-12-15T09:49:58.912Z,0.30
2022-12-15T09:53:00.685Z,0.20
2022-12-15T09:55:30.444Z,0.00
2022-12-15T09:58:11.529Z,0.00
2022-12-15T10:00:44.744Z,-0.10
2022-12-15T10:04:04.144Z,-0.20
2022-12-15T10:07:23.407Z,-0.20
2022-12-15T10:09:50.307Z,-0.20
2022-12-15T10:12:24.859Z,-0.40
2022-12-15T10:14:57.595Z,-0.40
2022-12-15T10:17:59.934Z,-0.50
2022-12-15T10:20:28.936Z,-0.50
2022-12-15T10:23:01.956Z,-0.70
2022-12-15T10:25:31.109Z,-0.80
2022-12-15T10:28:31.667Z,-0.90
2022-12-15T10:31:05.518Z,-1.00
2022-12-15T10:33:40.623Z,-1.10
2022-12-15T10:36:12.563Z,-1.10
2022-12-15T10:38:50.429Z,-1.20
2022-12-15T10:41:31.689Z,-1.30
2022-12-15T10:43:58.894Z,-1.30
2022-12-15T10:46:32.976Z,-1.40
2022-12-15T10:49:24.635Z,-1.40
2022-12-15T10:51:57.370Z,-1.40
2022-12-15T10:54:30.877Z,-1.40
2022-12-15T10:57:03.547Z,-1.40
2022-12-15T10:59:31.937Z,-1.40
2022-12-15T11:02:33.665Z,-1.40
2022-12-15T11:05:02.275Z,-1.40
2022-12-15T11:07:40.957Z,-1.30
2022-12-15T11:10:26.253Z,-1.30
2022-12-15T11:13:15.640Z,-1.30
2022-12-15T11:15:53.431Z,-1.30
2022-12-15T11:18:58.906Z,-1.30
2022-12-15T11:21:34.366Z,-1.30
2022-12-15T11:24:33.066Z,-1.20
2022-12-15T11:27:36.153Z,-1.10
2022-12-15T11:30:19.205Z,-1.10
2022-12-15T11:32:53.748Z,-1.00
2022-12-15T11:35:46.232Z,-1.00
2022-12-15T11:39:06.978Z,-1.00
2022-12-15T11:42:07.379Z,-1.00
2022-12-15T11:44:51.627Z,-0.90
2022-12-15T11:47:45.043Z,-0.80
2022-12-15T11:50:36.994Z,-0.80
2022-12-15T11:53:21.441Z,-0.70
2022-12-15T11:56:24.362Z,-0.60
2022-12-15T11:59:20.314Z,-0.60
2022-12-15T12:02:25.113Z,-0.50
2022-12-15T12:05:39.893Z,-0.50
2022-12-15T12:08:32.745Z,-0.50
2022-12-15T12:11:38.837Z,-0.50
2022-12-15T12:14:32.536Z,-0.40
2022-12-15T12:17:08.528Z,-0.40
2022-12-15T12:19:45.835Z,-0.40
2022-12-15T12:22:38.374Z,-0.50
2022-12-15T12:25:17.087Z,-0.40
2022-12-15T12:28:02.083Z,-0.50
2022-12-15T12:30:50.428Z,-0.50
2022-12-15T12:33:32.943Z,-0.40
2022-12-15T12:36:14.611Z,-0.40
2022-12-15T12:38:56.181Z,-0.40
2022-12-15T12:41:47.163Z,-0.40
2022-12-15T12:44:31.299Z,-0.40
2022-12-15T12:47:06.529Z,-0.40
2022-12-15T12:49:56.597Z,-0.40
2022-12-15T12:52:37.025Z,-0.30
2022-12-15T12:55:40.693Z,-0.30
2022-12-15T12:58:32.742Z,-0.30
2022-12-15T13:01:33.256Z,-0.40
2022-12-15T13:04:34.052Z,-0.40
2022-12-15T13:07:03.520Z,-0.40
2022-12-15T13:09:44.569Z,-0.40
2022-12-15T13:12:52.886Z,-0.40
2022-12-15T13:15:42.811Z,-0.40
2022-12-15T13:18:20.617Z,-0.40
2022-12-15T13:23:41.673Z,-0.40
2022-12-15T13:26:10.848Z,-0.30
2022-12-15T13:28:45.781Z,-0.30
2022-12-15T13:31:19.525Z,-0.30
2022-12-15T13:34:13.377Z,-0.30
2022-12-15T13:36:55.509Z,-0.20
2022-12-15T13:39:34.390Z,-0.10
2022-12-15T13:42:34.066Z,-0.20
2022-12-15T13:45:27.514Z,-0.20
2022-12-15T13:47:56.239Z,-0.30
2022-12-15T13:50:33.462Z,-0.40
2022-12-15T13:53:20.068Z,-0.50
2022-12-15T13:56:03.988Z,-0.50
2022-12-15T13:58:39.555Z,-0.50
2022-12-15T14:01:20.199Z,-0.60
2022-12-15T14:04:18.773Z,-0.60
2022-12-15T14:07:08.338Z,-0.60
2022-12-15T14:09:51.630Z,-0.70
2022-12-15T14:12:35.477Z,-0.80
2022-12-15T14:15:05.091Z,-0.80
2022-12-15T14:17:38.489Z,-0.80
2022-12-15T14:20:39.930Z,-0.80
2022-12-15T14:24:37.396Z,-0.70
2022-12-15T14:26:48.011Z,-0.70
2022-12-15T14:29:28.211Z,-0.80
2022-12-15T14:32:28.812Z,-0.80
2022-12-15T14:35:20.968Z,-0.90
2022-12-15T14:37:53.959Z,-1.00
2022-12-15T14:40:26.570Z,-1.10
2022-12-15T14:42:55.830Z,-1.20
2022-12-15T14:45:27.037Z,-1.20
2022-12-15T14:48:21.550Z,-1.20
2022-12-15T14:50:48.877Z,-1.30
2022-12-15T14:53:20.553Z,-1.40
2022-12-15T14:55:47.782Z,-1.10
2022-12-15T14:58:36.986Z,-0.60
2022-12-15T15:01:16.226Z,-0.10
2022-12-15T15:03:07.443Z,-0.40
2022-12-15T15:03:43.042Z,0.20
2022-12-15T15:06:18.735Z,0.20
2022-12-15T15:08:51.569Z,0.00
2022-12-15T15:11:40.735Z,-0.30
2022-12-15T15:14:18.473Z,-0.60
2022-12-15T15:16:46.488Z,-0.80
2022-12-15T15:19:22.679Z,-1.10
2022-12-15T15:21:50.262Z,-1.20
2022-12-15T15:24:32.494Z,-1.20
2022-12-15T15:27:22.701Z,-1.20
2022-12-15T15:29:49.799Z,-1.20
2022-12-15T15:32:25.251Z,-1.40
2022-12-15T15:34:55.538Z,-1.30
2022-12-15T15:37:25.887Z,-1.20
2022-12-15T15:39:55.258Z,-1.30
2022-12-15T15:42:26.672Z,-1.60
2022-12-15T15:45:00.065Z,-1.80
2022-12-15T15:47:27.559Z,-2.00
2022-12-15T15:49:58.663Z,-2.20
2022-12-15T15:52:28.542Z,-2.20
2022-12-15T15:54:55.485Z,-2.00
2022-12-15T15:57:23.435Z,-1.90
2022-12-15T15:59:51.182Z,-1.80
2022-12-15T16:02:18.309Z,-1.90
2022-12-15T16:04:46.041Z,-2.00
2022-12-15T16:07:24.122Z,-2.00
2022-12-15T16:09:53.540Z,-2.10
2022-12-15T16:12:30.225Z,-2.30
2022-12-15T16:14:57.320Z,-2.40
2022-12-15T16:17:24.238Z,-2.60
2022-12-15T16:19:51.091Z,-2.60
2022-12-15T16:22:20.838Z,-2.70
2022-12-15T16:24:49.015Z,-2.80
2022-12-15T16:27:16.437Z,-2.80
2022-12-15T16:29:43.676Z,-2.70
2022-12-15T16:32:12.598Z,-2.70
2022-12-15T16:34:39.559Z,-2.90
2022-12-15T16:37:14.544Z,-3.00
2022-12-15T16:39:43.805Z,-3.10
2022-12-15T16:42:12.351Z,-3.00
2022-12-15T16:44:39.376Z,-3.00
2022-12-15T16:47:06.350Z,-3.20
2022-12-15T16:49:39.856Z,-3.10
2022-12-15T16:52:17.519Z,-3.00
2022-12-15T16:54:48.025Z,-3.10
2022-12-15T16:57:16.488Z,-3.20
2022-12-15T16:59:43.552Z,-3.50
2022-12-15T17:02:28.562Z,-3.60
2022-12-15T17:04:56.100Z,-3.80
2022-12-15T17:07:26.479Z,-3.70
2022-12-15T17:09:53.520Z,-3.80
2022-12-15T17:12:20.578Z,-3.70
2022-12-15T17:14:47.699Z,-3.70
2022-12-15T17:17:17.315Z,-3.70
2022-12-15T17:20:11.856Z,-3.80
2022-12-15T17:22:33.503Z,-3.90
2022-12-15T17:25:03.039Z,-4.10
2022-12-15T17:27:30.451Z,-4.20
2022-12-15T17:29:59.125Z,-4.30
2022-12-15T17:32:26.898Z,-4.40
2022-12-15T17:34:53.867Z,-4.30
2022-12-15T17:37:20.871Z,-4.10
2022-12-15T17:39:51.396Z,-3.80
2022-12-15T17:42:20.465Z,-3.80
2022-12-15T17:44:48.884Z,-3.80
2022-12-15T17:47:19.668Z,-4.00
2022-12-15T17:49:47.466Z,-4.20
2022-12-15T17:52:40.548Z,-4.40
2022-12-15T17:55:21.354Z,-4.50
2022-12-15T17:57:48.764Z,-4.60
2022-12-15T18:00:25.943Z,-4.70
2022-12-15T18:02:55.203Z,-4.70
2022-12-15T18:05:25.435Z,-4.60
2022-12-15T18:07:55.732Z,-4.50
2022-12-15T18:10:28.334Z,-4.40
2022-12-15T18:12:55.818Z,-4.40
2022-12-15T18:15:25.937Z,-4.50
2022-12-15T18:17:53.028Z,-4.70
2022-12-15T18:20:20.807Z,-4.70
2022-12-15T18:22:49.846Z,-4.70
2022-12-15T18:25:22.955Z,-4.60
2022-12-15T18:27:50.114Z,-4.70
2022-12-15T18:30:19.794Z,-4.70
2022-12-15T18:32:48.722Z,-4.70
2022-12-15T18:35:20.047Z,-4.70
2022-12-15T18:37:47.777Z,-4.60
2022-12-15T18:40:17.035Z,-4.60
2022-12-15T18:42:45.867Z,-4.70
2022-12-15T18:45:27.936Z,-4.80
2022-12-15T18:47:55.366Z,-4.70
2022-12-15T18:50:26.453Z,-4.70
2022-12-15T18:53:04.334Z,-4.70
2022-12-15T18:55:31.917Z,-4.60
2022-12-15T18:58:00.571Z,-4.70
2022-12-15T19:00:29.640Z,-4.80
2022-12-15T19:03:01.246Z,-4.90
2022-12-15T19:05:29.344Z,-5.00
2022-12-15T19:08:20.237Z,-5.10
2022-12-15T19:11:08.497Z,-5.20
2022-12-15T19:13:37.847Z,-5.20
2022-12-15T19:16:07.824Z,-5.30
2022-12-15T19:18:53.547Z,-5.40
2022-12-15T19:21:50.606Z,-5.50
2022-12-15T19:24:41.821Z,-5.60
2022-12-15T19:27:12.960Z,-5.30
2022-12-15T19:29:41.738Z,-5.20
2022-12-15T19:32:23.630Z,-5.20
2022-12-15T19:34:51.044Z,-5.20
2022-12-15T19:37:27.870Z,-5.30
2022-12-15T19:39:57.001Z,-5.40
2022-12-15T19:42:37.750Z,-5.50
2022-12-15T19:45:24.083Z,-5.50
2022-12-15T19:47:51.165Z,-5.50
2022-12-15T19:50:31.277Z,-5.50
2022-12-15T19:53:00.989Z,-5.60
2022-12-15T19:55:34.049Z,-5.60
2022-12-15T19:58:14.965Z,-5.50
2022-12-15T20:00:42.182Z,-5.40
2022-12-15T20:03:09.229Z,-5.40
2022-12-15T20:05:36.954Z,-5.50
2022-12-15T20:08:07.326Z,-5.50
2022-12-15T20:10:34.329Z,-5.60
2022-12-15T20:13:03.443Z,-5.60
2022-12-15T20:15:30.426Z,-5.70
2022-12-15T20:17:58.001Z,-5.70
2022-12-15T20:20:29.407Z,-5.70
2022-12-15T20:23:01.330Z,-5.80
2022-12-15T20:25:32.492Z,-6.00
2022-12-15T20:28:00.887Z,-6.10
2022-12-15T20:30:35.568Z,-6.20
2022-12-15T20:33:05.622Z,-6.20
2022-12-15T20:35:35.672Z,-6.10
2022-12-15T20:38:32.835Z,-5.80
2022-12-15T20:41:01.599Z,-5.60
2022-12-15T20:43:31.961Z,-5.70
2022-12-15T20:46:07.699Z,-5.80
2022-12-15T20:48:36.932Z,-6.00
2022-12-15T20:51:09.578Z,-6.10
2022-12-15T20:53:40.992Z,-6.10
2022-12-15T20:56:11.193Z,-6.00
2022-12-15T20:58:41.977Z,-6.00
2022-12-15T21:01:45.041Z,-6.00
2022-12-15T21:04:26.656Z,-6.20
2022-12-15T21:06:55.652Z,-6.20
2022-12-15T21:09:26.151Z,-6.10
2022-12-15T21:11:55.232Z,-6.00
2022-12-15T21:14:23.988Z,-6.00
2022-12-15T21:16:51.211Z,-6.00
2022-12-15T21:19:21.334Z,-6.00
2022-12-15T21:24:38.742Z,-6.20
2022-12-15T21:27:07.143Z,-6.10
2022-12-15T21:29:36.226Z,-6.20
2022-12-15T21:32:03.484Z,-6.30
2022-12-15T21:34:30.509Z,-6.40
2022-12-15T21:36:58.101Z,-6.30
2022-12-15T21:39:31.146Z,-6.40
2022-12-15T21:42:13.387Z,-6.50
2022-12-15T21:44:42.001Z,-6.50
2022-12-15T21:47:47.969Z,-6.40
2022-12-15T21:50:16.702Z,-6.40
2022-12-15T21:52:45.450Z,-6.20
2022-12-15T21:55:21.964Z,-6.10
2022-12-15T21:57:49.122Z,-6.00
2022-12-15T22:00:19.670Z,-6.00
2022-12-15T22:02:48.479Z,-6.10
2022-12-15T22:05:22.471Z,-6.30
2022-12-15T22:07:50.628Z,-6.30
2022-12-15T22:10:19.954Z,-6.40
2022-12-15T22:15:38.963Z,-6.60
2022-12-15T22:18:12.089Z,-6.70
2022-12-15T22:20:39.121Z,-6.70
2022-12-15T22:23:06.197Z,-6.70
2022-12-15T22:25:33.323Z,-6.60
2022-12-15T22:28:02.406Z,-6.60
2022-12-15T22:30:29.490Z,-6.60
2022-12-15T22:32:56.488Z,-6.60
2022-12-15T22:35:26.403Z,-6.60
2022-12-15T22:37:56.797Z,-6.60
2022-12-15T22:40:24.707Z,-6.60
2022-12-15T22:42:57.208Z,-6.70
2022-12-15T22:45:24.541Z,-6.80
2022-12-15T22:47:53.432Z,-6.80
2022-12-15T22:50:26.410Z,-6.70
2022-12-15T22:52:55.251Z,-6.80
2022-12-15T22:55:24.651Z,-6.80
2022-12-15T22:58:02.609Z,-6.80
2022-12-15T23:00:29.584Z,-6.80
2022-12-15T23:02:59.224Z,-6.90
2022-12-15T23:05:29.711Z,-6.80
2022-12-15T23:07:56.987Z,-6.70
2022-12-15T23:10:42.481Z,-6.70
2022-12-15T23:13:09.571Z,-6.70
2022-12-15T23:15:54.931Z,-6.60
2022-12-15T23:18:21.916Z,-6.50
2022-12-15T23:20:49.079Z,-6.50
2022-12-15T23:23:16.030Z,-6.50
2022-12-15T23:25:43.952Z,-6.60
2022-12-15T23:28:13.453Z,-6.60
2022-12-15T23:30:40.567Z,-6.80
2022-12-15T23:33:07.497Z,-7.00
2022-12-15T23:35:34.455Z,-7.10
2022-12-15T23:38:01.482Z,-7.20
2022-12-15T23:40:28.502Z,-7.30
2022-12-15T23:42:55.473Z,-7.10
2022-12-15T23:45:22.557Z,-7.00
2022-12-15T23:47:49.736Z,-6.90
2022-12-15T23:50:17.105Z,-6.90
2022-12-15T23:52:44.368Z,-6.90
2022-12-15T23:55:12.987Z,-6.90
2022-12-15T23:57:40.248Z,-6.90
